Time;durP1;ratioP1;P1;durP2;ratioP2;P2;SDS_P1;SDS_P2;PMS_P1;PMS_P2;Temp;Humidity;BMP_temperature;BMP_pressure;BME280_temperature;BME280_humidity;BME280_pressure;Samples;Min_cycle;Max_cycle;Signal;HPM_P1;HPM_P2
2021/04/01 00:00:19;;;;;;;6.10;3.42;;;;;;;;;;5089542;28;20097;-87
2021/04/01 00:02:47;;;;;;;4.70;2.90;;;;;;;;;;5084999;28;20483;-88
2021/04/01 00:05:13;;;;;;;8.00;2.95;;;;;;;;;;5091366;28;20128;-86
2021/04/01 00:07:40;;;;;;;6.78;3.35;;;;;;;;;;5092268;28;20062;-88
2021/04/01 00:10:08;;;;;;;10.57;4.10;;;;;;;;;;5085601;28;20055;-86
2021/04/01 00:12:35;;;;;;;6.40;2.97;;;;;;;;;;5082910;28;20048;-85
2021/04/01 00:15:01;;;;;;;6.10;2.65;;;;;;;;;;5086199;28;20116;-87
2021/04/01 00:17:27;;;;;;;6.18;2.97;;;;;;;;;;5087883;28;20054;-86
2021/04/01 00:19:53;;;;;;;5.30;2.80;;;;;;;;;;5090375;28;20036;-86
2021/04/01 00:22:19;;;;;;;8.15;3.17;;;;;;;;;;5092066;28;20055;-86
2021/04/01 00:24:45;;;;;;;9.18;3.40;;;;;;;;;;5091560;28;20415;-85
2021/04/01 00:27:11;;;;;;;5.80;3.20;;;;;;;;;;5095910;28;20037;-86
2021/04/01 00:29:38;;;;;;;5.55;3.15;;;;;;;;;;5090209;28;20048;-86
2021/04/01 00:32:06;;;;;;;5.40;3.05;;;;;;;;;;5090740;28;20431;-84
2021/04/01 00:34:32;;;;;;;5.43;2.75;;;;;;;;;;5093877;28;20044;-85
2021/04/01 00:36:58;;;;;;;7.53;2.90;;;;;;;;;;5090229;28;20043;-85
2021/04/01 00:39:24;;;;;;;7.72;2.85;;;;;;;;;;5089416;28;20054;-86
2021/04/01 00:41:50;;;;;;;8.15;3.28;;;;;;;;;;5090771;28;20043;-86
2021/04/01 00:44:17;;;;;;;5.97;3.08;;;;;;;;;;5093826;28;20079;-84
2021/04/01 00:46:47;;;;;;;8.02;3.50;;;;;;;;;;5089844;28;20044;-85
2021/04/01 00:49:13;;;;;;;12.88;5.47;;;;;;;;;;5094953;28;20052;-84
2021/04/01 00:51:39;;;;;;;5.50;2.65;;;;;;;;;;5092137;28;20036;-84
2021/04/01 00:54:05;;;;;;;8.25;3.50;;;;;;;;;;5088637;28;20454;-85
2021/04/01 00:56:31;;;;;;;7.20;3.30;;;;;;;;;;5094630;28;20070;-84
2021/04/01 00:58:57;;;;;;;5.28;3.60;;;;;;;;;;5091073;28;20367;-85
2021/04/01 01:01:37;;;;;;;8.40;3.28;;;;;;;;;;5088480;28;20052;-85
2021/04/01 01:04:04;;;;;;;6.30;2.90;;;;;;;;;;5094504;28;20044;-86
2021/04/01 01:06:31;;;;;;;6.28;3.00;;;;;;;;;;5093907;28;20075;-86
2021/04/01 01:08:57;;;;;;;7.00;3.20;;;;;;;;;;5095542;28;20044;-86
2021/04/01 01:11:23;;;;;;;5.57;3.08;;;;;;;;;;5090083;28;20050;-85
2021/04/01 01:13:49;;;;;;;8.85;3.80;;;;;;;;;;5086408;28;20045;-85
2021/04/01 01:16:15;;;;;;;7.50;3.45;;;;;;;;;;5089383;28;20056;-85
2021/04/01 01:18:41;;;;;;;7.57;3.80;;;;;;;;;;5091602;28;20228;-86
2021/04/01 01:21:08;;;;;;;7.25;3.67;;;;;;;;;;5084942;28;20579;-85
2021/04/01 01:23:35;;;;;;;8.68;3.15;;;;;;;;;;5090465;28;20548;-86
2021/04/01 01:26:03;;;;;;;8.75;3.72;;;;;;;;;;5089886;28;20127;-85
2021/04/01 01:28:29;;;;;;;8.02;3.75;;;;;;;;;;5089374;28;20411;-86
2021/04/01 01:30:55;;;;;;;7.32;3.58;;;;;;;;;;5092253;28;20049;-85
2021/04/01 01:33:22;;;;;;;11.05;3.78;;;;;;;;;;5087599;28;20040;-86
2021/04/01 01:35:49;;;;;;;6.68;3.83;;;;;;;;;;5088725;28;20075;-85
2021/04/01 01:38:16;;;;;;;10.60;4.13;;;;;;;;;;5086217;28;20420;-87
2021/04/01 01:40:42;;;;;;;6.68;3.33;;;;;;;;;;5085714;28;20040;-86
2021/04/01 01:43:11;;;;;;;8.88;3.45;;;;;;;;;;5085800;28;20050;-86
2021/04/01 01:45:37;;;;;;;12.05;3.50;;;;;;;;;;5088459;28;20042;-84
2021/04/01 01:48:04;;;;;;;7.57;3.67;;;;;;;;;;5086724;28;20040;-86
2021/04/01 01:50:32;;;;;;;11.10;4.05;;;;;;;;;;5091046;28;20126;-85
2021/04/01 01:52:58;;;;;;;9.25;4.57;;;;;;;;;;5092146;28;20040;-85
2021/04/01 01:55:25;;;;;;;8.70;5.05;;;;;;;;;;5086732;28;20048;-85
2021/04/01 01:57:52;;;;;;;7.22;3.42;;;;;;;;;;5090286;28;20127;-86
2021/04/01 02:00:21;;;;;;;8.77;4.22;;;;;;;;;;5093375;28;20036;-86
2021/04/01 02:02:52;;;;;;;9.18;4.05;;;;;;;;;;5088872;28;20797;-86
2021/04/01 02:05:18;;;;;;;6.75;3.72;;;;;;;;;;5089578;28;20098;-86
2021/04/01 02:07:44;;;;;;;10.60;4.13;;;;;;;;;;5089985;28;20070;-86
2021/04/01 02:10:14;;;;;;;9.27;4.25;;;;;;;;;;5084260;28;20063;-86
2021/04/01 02:12:40;;;;;;;7.43;4.50;;;;;;;;;;5084095;28;20404;-86
2021/04/01 02:15:10;;;;;;;7.75;3.85;;;;;;;;;;5089194;28;20048;-85
2021/04/01 02:17:37;;;;;;;7.80;4.15;;;;;;;;;;5086337;28;20047;-85
2021/04/01 02:20:04;;;;;;;8.55;4.45;;;;;;;;;;5089531;28;20041;-84
2021/04/01 02:22:30;;;;;;;9.65;4.35;;;;;;;;;;5091263;28;20048;-86
2021/04/01 02:24:56;;;;;;;10.50;4.63;;;;;;;;;;5092130;28;20411;-84
2021/04/01 02:27:22;;;;;;;5.78;3.67;;;;;;;;;;5091463;28;20048;-87
2021/04/01 02:29:48;;;;;;;6.93;3.90;;;;;;;;;;5090630;28;20099;-85
2021/04/01 02:32:14;;;;;;;9.68;4.45;;;;;;;;;;5087659;28;20051;-86
2021/04/01 02:34:41;;;;;;;7.47;4.32;;;;;;;;;;5064076;28;20066;-85
2021/04/01 02:37:07;;;;;;;7.32;4.25;;;;;;;;;;5089996;28;20093;-84
2021/04/01 02:39:34;;;;;;;6.78;4.18;;;;;;;;;;5090128;28;20040;-84
2021/04/01 02:42:00;;;;;;;6.70;4.18;;;;;;;;;;5083426;28;20040;-85
2021/04/01 02:44:26;;;;;;;8.30;3.80;;;;;;;;;;5089853;28;20051;-86
2021/04/01 02:46:53;;;;;;;8.43;4.70;;;;;;;;;;5091706;28;20044;-86
2021/04/01 02:49:19;;;;;;;8.70;4.50;;;;;;;;;;5088081;28;20049;-85
2021/04/01 02:51:48;;;;;;;8.57;3.72;;;;;;;;;;5088962;28;20041;-85
2021/04/01 02:54:14;;;;;;;9.90;4.32;;;;;;;;;;5089588;28;20051;-85
2021/04/01 02:56:40;;;;;;;9.93;5.15;;;;;;;;;;5091296;28;20052;-86
2021/04/01 02:59:06;;;;;;;8.25;4.55;;;;;;;;;;5086073;28;20044;-86
2021/04/01 03:01:33;;;;;;;8.98;5.30;;;;;;;;;;5087241;28;20132;-86
2021/04/01 03:04:01;;;;;;;9.00;3.95;;;;;;;;;;5090225;28;20040;-85
2021/04/01 03:06:27;;;;;;;12.48;4.82;;;;;;;;;;5083800;28;20044;-85
2021/04/01 03:08:54;;;;;;;9.23;4.32;;;;;;;;;;5088935;28;20699;-85
2021/04/01 03:11:21;;;;;;;7.75;4.03;;;;;;;;;;5090204;28;20044;-85
2021/04/01 03:13:47;;;;;;;10.07;4.63;;;;;;;;;;5089367;28;20040;-87
2021/04/01 03:16:13;;;;;;;7.28;4.00;;;;;;;;;;5085977;28;20060;-88
2021/04/01 03:18:39;;;;;;;10.30;4.35;;;;;;;;;;5088415;28;20561;-86
2021/04/01 03:21:06;;;;;;;6.38;3.92;;;;;;;;;;5086394;28;20059;-86
2021/04/01 03:23:32;;;;;;;7.53;3.80;;;;;;;;;;5085562;28;20103;-86
2021/04/01 03:25:59;;;;;;;9.18;4.65;;;;;;;;;;5091164;28;20119;-86
2021/04/01 03:28:25;;;;;;;11.38;3.95;;;;;;;;;;5089975;28;20120;-84
2021/04/01 03:30:57;;;;;;;7.47;3.78;;;;;;;;;;5088076;28;20063;-85
2021/04/01 03:33:23;;;;;;;8.77;5.03;;;;;;;;;;5091380;28;20067;-85
2021/04/01 03:35:49;;;;;;;9.00;4.55;;;;;;;;;;5085313;28;20044;-85
2021/04/01 03:38:16;;;;;;;8.43;3.88;;;;;;;;;;5087968;28;20502;-85
2021/04/01 03:40:42;;;;;;;9.15;4.03;;;;;;;;;;5092457;28;20044;-86
2021/04/01 03:43:09;;;;;;;8.57;4.00;;;;;;;;;;5086661;28;20040;-86
2021/04/01 03:45:36;;;;;;;7.82;4.40;;;;;;;;;;5091457;28;20044;-86
2021/04/01 03:48:02;;;;;;;6.57;3.50;;;;;;;;;;5094486;28;20051;-87
2021/04/01 03:50:28;;;;;;;9.82;4.28;;;;;;;;;;5093568;28;20159;-85
2021/04/01 03:52:54;;;;;;;14.43;5.00;;;;;;;;;;5091742;28;20044;-85
2021/04/01 03:55:35;;;;;;;10.98;4.22;;;;;;;;;;5088480;28;20054;-85
2021/04/01 03:58:13;;;;;;;8.63;4.15;;;;;;;;;;5089713;28;20128;-87
2021/04/01 04:00:41;;;;;;;10.85;4.88;;;;;;;;;;5092317;28;20067;-85
2021/04/01 04:03:18;;;;;;;7.50;4.50;;;;;;;;;;5088852;28;20051;-85
2021/04/01 04:05:55;;;;;;;7.28;3.70;;;;;;;;;;5092519;28;20044;-85
2021/04/01 04:08:38;;;;;;;8.38;4.20;;;;;;;;;;5094081;28;20079;-86
2021/04/01 04:13:50;;;;;;;12.27;4.65;;;;;;;;;;5085143;28;20044;-86
2021/04/01 04:16:17;;;;;;;9.30;4.55;;;;;;;;;;5088536;28;20075;-88
2021/04/01 04:18:43;;;;;;;8.82;3.88;;;;;;;;;;5093736;28;20599;-84
2021/04/01 04:21:09;;;;;;;8.07;4.20;;;;;;;;;;5089638;28;20072;-84
2021/04/01 04:23:38;;;;;;;9.60;4.20;;;;;;;;;;5091200;28;20054;-84
2021/04/01 04:26:04;;;;;;;17.15;6.72;;;;;;;;;;5092581;28;20045;-86
2021/04/01 04:28:33;;;;;;;15.45;4.60;;;;;;;;;;5092979;28;20040;-84
2021/04/01 04:30:59;;;;;;;12.25;3.83;;;;;;;;;;5093470;28;20054;-85
2021/04/01 04:33:26;;;;;;;10.20;4.20;;;;;;;;;;5097165;28;20037;-86
2021/04/01 04:35:52;;;;;;;7.72;4.10;;;;;;;;;;5085191;28;20051;-85
2021/04/01 04:38:18;;;;;;;14.63;5.30;;;;;;;;;;5095381;28;20048;-86
2021/04/01 04:40:45;;;;;;;10.50;3.95;;;;;;;;;;5085724;28;20496;-86
2021/04/01 04:43:11;;;;;;;10.10;4.03;;;;;;;;;;5088475;28;20518;-87
2021/04/01 04:45:37;;;;;;;11.75;4.93;;;;;;;;;;5091658;28;20040;-85
2021/04/01 04:48:03;;;;;;;10.63;4.80;;;;;;;;;;5091414;28;20046;-87
2021/04/01 04:50:30;;;;;;;12.32;4.80;;;;;;;;;;5090038;28;20050;-86
2021/04/01 04:52:56;;;;;;;8.70;4.15;;;;;;;;;;5088401;28;20044;-87
2021/04/01 04:55:23;;;;;;;11.25;4.45;;;;;;;;;;5087653;28;20135;-85
2021/04/01 04:57:54;;;;;;;9.70;4.40;;;;;;;;;;5090376;28;20548;-85
2021/04/01 05:05:46;;;;;;;10.65;4.72;;;;;;;;;;5091286;28;20090;-85
2021/04/01 05:08:12;;;;;;;9.77;5.00;;;;;;;;;;5093724;28;20792;-85
2021/04/01 05:10:38;;;;;;;12.60;5.10;;;;;;;;;;5091987;28;20128;-85
2021/04/01 05:13:11;;;;;;;10.95;5.15;;;;;;;;;;5088619;28;20051;-86
2021/04/01 05:15:39;;;;;;;13.60;4.88;;;;;;;;;;5092506;28;20083;-85
2021/04/01 05:18:15;;;;;;;9.80;4.68;;;;;;;;;;5086106;28;20066;-86
2021/04/01 05:20:42;;;;;;;13.50;4.90;;;;;;;;;;5092357;28;20887;-87
2021/04/01 05:23:20;;;;;;;13.35;4.75;;;;;;;;;;5091963;28;20044;-88
2021/04/01 05:25:47;;;;;;;8.60;4.20;;;;;;;;;;5090679;28;20055;-86
2021/04/01 05:28:21;;;;;;;11.50;5.38;;;;;;;;;;5089293;28;20072;-86
2021/04/01 05:30:47;;;;;;;10.10;5.35;;;;;;;;;;5085756;28;20639;-85
2021/04/01 05:33:15;;;;;;;12.73;4.75;;;;;;;;;;5087115;28;20056;-85
2021/04/01 05:35:41;;;;;;;12.50;5.63;;;;;;;;;;5088472;28;20178;-86
2021/04/01 05:38:07;;;;;;;10.45;5.40;;;;;;;;;;5086974;28;20045;-85
2021/04/01 05:40:34;;;;;;;12.27;5.05;;;;;;;;;;5082836;28;20036;-87
2021/04/01 05:43:02;;;;;;;8.32;4.20;;;;;;;;;;5089021;28;20131;-85
2021/04/01 05:45:36;;;;;;;14.57;5.53;;;;;;;;;;5090357;28;20170;-85
2021/04/01 05:48:05;;;;;;;12.88;5.28;;;;;;;;;;5089483;28;20423;-86
2021/04/01 05:50:43;;;;;;;9.82;4.32;;;;;;;;;;5088714;28;20078;-85
2021/04/01 05:59:13;;;;;;;10.93;5.55;;;;;;;;;;5092739;28;20044;-86
2021/04/01 06:04:33;;;;;;;8.98;5.45;;;;;;;;;;5084712;28;20052;-84
2021/04/01 06:07:05;;;;;;;13.10;5.22;;;;;;;;;;5086976;28;20052;-87
2021/04/01 06:09:36;;;;;;;9.50;4.88;;;;;;;;;;5089165;28;20043;-85
2021/04/01 06:12:04;;;;;;;12.60;5.35;;;;;;;;;;5088308;28;20044;-85
2021/04/01 06:14:56;;;;;;;18.52;7.97;;;;;;;;;;5088698;28;20705;-84
2021/04/01 06:17:24;;;;;;;14.05;8.60;;;;;;;;;;5093924;28;20056;-86
2021/04/01 06:19:53;;;;;;;12.05;6.15;;;;;;;;;;5085405;28;20397;-85
2021/04/01 06:22:21;;;;;;;12.65;5.70;;;;;;;;;;5093727;28;20047;-84
2021/04/01 06:24:49;;;;;;;14.25;6.32;;;;;;;;;;5091649;28;20051;-85
2021/04/01 06:27:21;;;;;;;12.15;5.35;;;;;;;;;;5095377;28;20514;-85
2021/04/01 06:32:33;;;;;;;16.90;6.75;;;;;;;;;;5090174;28;20040;-84
2021/04/01 06:35:08;;;;;;;16.05;6.65;;;;;;;;;;5092197;28;20040;-84
2021/04/01 06:37:47;;;;;;;26.13;9.45;;;;;;;;;;5089716;28;20096;-85
2021/04/01 06:40:14;;;;;;;23.92;15.43;;;;;;;;;;5096023;28;20036;-85
2021/04/01 06:42:45;;;;;;;21.00;11.10;;;;;;;;;;5094399;28;20499;-85
2021/04/01 06:45:12;;;;;;;17.48;11.57;;;;;;;;;;5089535;28;20415;-84
2021/04/01 06:47:38;;;;;;;23.48;9.57;;;;;;;;;;5094298;28;20500;-85
2021/04/01 06:50:07;;;;;;;12.43;7.70;;;;;;;;;;5093081;28;20048;-84
2021/04/01 06:52:36;;;;;;;15.75;7.32;;;;;;;;;;5093637;28;20040;-84
2021/04/01 06:55:14;;;;;;;12.93;7.38;;;;;;;;;;5089306;28;20048;-84
2021/04/01 07:00:46;;;;;;;16.30;8.48;;;;;;;;;;5090955;28;20044;-83
2021/04/01 07:03:19;;;;;;;15.93;8.02;;;;;;;;;;5093540;28;20051;-84
2021/04/01 07:05:54;;;;;;;12.90;6.60;;;;;;;;;;5094643;28;20483;-85
2021/04/01 07:08:35;;;;;;;10.98;6.18;;;;;;;;;;5072119;28;20078;-85
2021/04/01 07:11:03;;;;;;;13.45;6.18;;;;;;;;;;5087759;28;20048;-85
2021/04/01 07:13:34;;;;;;;11.55;7.13;;;;;;;;;;5063038;28;20044;-84
2021/04/01 07:16:10;;;;;;;16.17;6.95;;;;;;;;;;5097412;28;20040;-85
2021/04/01 07:18:55;;;;;;;9.52;5.47;;;;;;;;;;5098078;28;20040;-84
2021/04/01 07:35:46;;;;;;;11.18;6.00;;;;;;;;;;5100692;28;20070;-85
2021/04/01 07:46:41;;;;;;;15.98;6.47;;;;;;;;;;5096445;28;20050;-84
2021/04/01 07:49:15;;;;;;;12.27;5.95;;;;;;;;;;5091577;28;20044;-84
2021/04/01 07:51:56;;;;;;;16.70;5.80;;;;;;;;;;5093037;28;20155;-84
2021/04/01 07:54:32;;;;;;;14.85;6.43;;;;;;;;;;5076994;28;20076;-85
2021/04/01 07:57:10;;;;;;;11.18;5.43;;;;;;;;;;5090694;28;20040;-84
2021/04/01 07:59:49;;;;;;;12.98;5.93;;;;;;;;;;5098703;28;20048;-84
2021/04/01 08:02:48;;;;;;;13.82;6.22;;;;;;;;;;5080517;28;20056;-86
2021/04/01 08:05:15;;;;;;;14.70;6.00;;;;;;;;;;5097216;28;20055;-85
2021/04/01 08:07:49;;;;;;;10.98;6.07;;;;;;;;;;5082363;28;20126;-85
2021/04/01 08:10:17;;;;;;;18.85;5.95;;;;;;;;;;5094016;28;20083;-85
2021/04/01 08:12:50;;;;;;;15.90;6.50;;;;;;;;;;5094536;28;20040;-85
2021/04/01 08:15:21;;;;;;;14.02;6.22;;;;;;;;;;5093360;28;20087;-85
2021/04/01 08:17:52;;;;;;;12.60;5.38;;;;;;;;;;5077661;28;20045;-85
2021/04/01 08:20:21;;;;;;;11.90;6.47;;;;;;;;;;5093544;28;20055;-85
2021/04/01 08:22:59;;;;;;;12.90;6.05;;;;;;;;;;5074416;28;20036;-84
2021/04/01 08:25:27;;;;;;;14.65;6.45;;;;;;;;;;5092745;28;20056;-85
2021/04/01 08:28:10;;;;;;;12.38;6.10;;;;;;;;;;5094809;28;20048;-85
2021/04/01 08:33:27;;;;;;;27.00;13.65;;;;;;;;;;5088856;28;20054;-85
2021/04/01 08:35:57;;;;;;;14.45;7.53;;;;;;;;;;5092391;28;20051;-85
2021/04/01 08:38:23;;;;;;;17.52;8.02;;;;;;;;;;5076473;28;20041;-85
2021/04/01 08:40:50;;;;;;;14.02;6.85;;;;;;;;;;5075701;28;20048;-85
2021/04/01 08:43:38;;;;;;;13.25;7.20;;;;;;;;;;5074336;28;20060;-84
2021/04/01 08:46:28;;;;;;;17.15;7.07;;;;;;;;;;5091710;28;20051;-85
2021/04/01 08:49:11;;;;;;;13.43;6.78;;;;;;;;;;5094149;28;20055;-84
2021/04/01 08:52:00;;;;;;;14.65;6.18;;;;;;;;;;5089414;28;20047;-84
2021/04/01 08:54:31;;;;;;;16.05;7.30;;;;;;;;;;5094558;28;20064;-85
2021/04/01 08:57:04;;;;;;;12.82;6.35;;;;;;;;;;5088493;28;20131;-85
2021/04/01 08:59:35;;;;;;;21.60;7.63;;;;;;;;;;5091235;28;20048;-84
2021/04/01 09:02:02;;;;;;;19.00;7.20;;;;;;;;;;5089478;28;20051;-84
2021/04/01 09:04:31;;;;;;;13.02;7.18;;;;;;;;;;5096292;28;20048;-84
2021/04/01 09:07:01;;;;;;;16.65;7.30;;;;;;;;;;5083929;28;20043;-85
2021/04/01 09:09:31;;;;;;;14.57;7.15;;;;;;;;;;5089252;28;20167;-85
2021/04/01 09:12:05;;;;;;;12.27;6.95;;;;;;;;;;5088777;28;20104;-85
2021/04/01 09:14:33;;;;;;;14.15;7.43;;;;;;;;;;5088336;28;20485;-85
2021/04/01 09:17:07;;;;;;;11.30;7.15;;;;;;;;;;5086148;28;20044;-84
2021/04/01 09:19:35;;;;;;;18.45;6.70;;;;;;;;;;5089498;28;20036;-85
2021/04/01 09:22:01;;;;;;;22.58;8.57;;;;;;;;;;5088094;28;20105;-85
2021/04/01 09:24:33;;;;;;;17.42;7.43;;;;;;;;;;5086958;28;20151;-85
2021/04/01 09:27:00;;;;;;;17.25;6.90;;;;;;;;;;5084187;28;20040;-87
2021/04/01 09:29:27;;;;;;;17.55;7.45;;;;;;;;;;5086210;28;20044;-85
2021/04/01 09:31:55;;;;;;;14.70;7.93;;;;;;;;;;5086721;28;20054;-84
2021/04/01 09:34:22;;;;;;;17.58;8.23;;;;;;;;;;5090387;28;20067;-85
2021/04/01 09:36:49;;;;;;;15.95;7.95;;;;;;;;;;5083641;28;20414;-85
2021/04/01 09:39:25;;;;;;;15.13;7.75;;;;;;;;;;5091656;28;20044;-85
2021/04/01 09:41:57;;;;;;;17.63;7.97;;;;;;;;;;5085392;28;20449;-85
2021/04/01 09:44:25;;;;;;;15.52;8.05;;;;;;;;;;5089435;28;20097;-85
2021/04/01 09:46:58;;;;;;;13.55;7.03;;;;;;;;;;5086418;28;20064;-85
2021/04/01 09:49:28;;;;;;;13.85;7.72;;;;;;;;;;5086286;28;20048;-86
2021/04/01 09:51:55;;;;;;;13.98;7.65;;;;;;;;;;5085411;28;20075;-86
2021/04/01 09:54:21;;;;;;;12.70;7.50;;;;;;;;;;5087284;28;20048;-86
2021/04/01 09:56:54;;;;;;;11.95;7.20;;;;;;;;;;5080804;28;20086;-85
2021/04/01 09:59:24;;;;;;;18.52;7.97;;;;;;;;;;5084461;28;20052;-84
2021/04/01 10:02:02;;;;;;;14.55;7.50;;;;;;;;;;5085229;28;20126;-84
2021/04/01 10:04:30;;;;;;;13.77;7.55;;;;;;;;;;5089103;28;20514;-84
2021/04/01 10:06:57;;;;;;;13.25;7.78;;;;;;;;;;5085525;28;20446;-85
2021/04/01 10:09:24;;;;;;;17.17;7.78;;;;;;;;;;5087450;28;20094;-85
2021/04/01 10:11:57;;;;;;;14.15;7.35;;;;;;;;;;5090795;28;20496;-85
2021/04/01 10:14:23;;;;;;;15.27;7.22;;;;;;;;;;5087872;28;20052;-85
2021/04/01 10:16:57;;;;;;;11.60;7.18;;;;;;;;;;5063765;28;20040;-84
2021/04/01 10:19:27;;;;;;;16.67;8.40;;;;;;;;;;5084173;28;20080;-84
2021/04/01 10:21:57;;;;;;;11.88;7.05;;;;;;;;;;5087077;28;20117;-85
2021/04/01 10:24:30;;;;;;;12.88;7.05;;;;;;;;;;5088474;28;20059;-86
2021/04/01 10:27:05;;;;;;;15.73;7.85;;;;;;;;;;5081939;28;20142;-86
2021/04/01 10:32:15;;;;;;;12.00;6.70;;;;;;;;;;5081559;28;20086;-86
2021/04/01 10:34:44;;;;;;;12.77;7.03;;;;;;;;;;5086573;28;20133;-86
2021/04/01 10:37:17;;;;;;;10.30;6.40;;;;;;;;;;5089261;28;20076;-86
2021/04/01 10:39:45;;;;;;;14.85;7.53;;;;;;;;;;5090041;28;20549;-84
2021/04/01 10:42:17;;;;;;;16.02;7.40;;;;;;;;;;5084940;28;20147;-85
2021/04/01 10:44:43;;;;;;;14.18;7.15;;;;;;;;;;5081661;28;20041;-85
2021/04/01 10:47:15;;;;;;;17.55;7.72;;;;;;;;;;5082600;28;20048;-85
2021/04/01 10:49:44;;;;;;;14.00;6.75;;;;;;;;;;5076984;28;20048;-85
2021/04/01 10:52:19;;;;;;;14.75;7.00;;;;;;;;;;5087515;28;20056;-85
2021/04/01 10:54:46;;;;;;;10.20;6.78;;;;;;;;;;5087444;28;20052;-85
2021/04/01 10:57:24;;;;;;;15.90;7.30;;;;;;;;;;5085693;28;20100;-85
2021/04/01 10:59:51;;;;;;;12.02;7.10;;;;;;;;;;5087073;28;20507;-85
2021/04/01 11:02:18;;;;;;;12.88;7.03;;;;;;;;;;5088933;28;20040;-85
2021/04/01 11:04:46;;;;;;;27.98;9.45;;;;;;;;;;5087767;28;20040;-84
2021/04/01 11:07:13;;;;;;;16.35;7.60;;;;;;;;;;5088559;28;20044;-86
2021/04/01 11:09:40;;;;;;;13.88;7.20;;;;;;;;;;5086388;28;20130;-85
2021/04/01 11:12:17;;;;;;;13.10;7.43;;;;;;;;;;5083106;28;20056;-85
2021/04/01 11:14:46;;;;;;;13.40;7.60;;;;;;;;;;5085038;28;20048;-85
2021/04/01 11:17:18;;;;;;;12.07;7.18;;;;;;;;;;5079987;28;20044;-85
2021/04/01 11:19:51;;;;;;;10.95;6.95;;;;;;;;;;5083454;28;20117;-85
2021/04/01 11:22:20;;;;;;;13.32;7.43;;;;;;;;;;5085526;28;20044;-85
2021/04/01 11:24:53;;;;;;;9.98;6.30;;;;;;;;;;5086199;28;20048;-85
2021/04/01 11:27:21;;;;;;;12.00;6.68;;;;;;;;;;5081874;28;20416;-85
2021/04/01 11:29:53;;;;;;;11.68;6.63;;;;;;;;;;5085914;28;20051;-85
2021/04/01 11:32:21;;;;;;;13.00;7.20;;;;;;;;;;5080857;28;20408;-85
2021/04/01 11:34:49;;;;;;;10.55;6.82;;;;;;;;;;5090848;28;20618;-85
2021/04/01 11:37:18;;;;;;;11.93;6.70;;;;;;;;;;5084284;28;20431;-85
2021/04/01 11:40:07;;;;;;;;;;;;;;;;;;;;;
2021/04/01 11:43:01;;;;;;;;;;;;;;;;;;;;;
2021/04/01 11:45:34;;;;;;;11.13;7.25;;;;;;;;;;5082904;28;20049;-85
2021/04/01 11:48:04;;;;;;;12.10;7.38;;;;;;;;;;5085283;28;20048;-85
2021/04/01 11:50:30;;;;;;;10.80;6.60;;;;;;;;;;5089576;28;20048;-85
2021/04/01 11:52:57;;;;;;;12.15;8.05;;;;;;;;;;5084503;28;20048;-85
2021/04/01 11:55:24;;;;;;;12.55;6.35;;;;;;;;;;5081567;28;20100;-85
2021/04/01 11:57:51;;;;;;;16.38;6.68;;;;;;;;;;5083902;28;20545;-85
2021/04/01 12:00:21;;;;;;;10.85;6.05;;;;;;;;;;5087053;28;20048;-85
2021/04/01 12:02:53;;;;;;;10.25;6.15;;;;;;;;;;5086468;28;20121;-85
2021/04/01 12:05:19;;;;;;;12.20;7.07;;;;;;;;;;5086308;28;20485;-86
2021/04/01 12:07:45;;;;;;;12.65;6.63;;;;;;;;;;5090689;28;20044;-87
2021/04/01 12:10:13;;;;;;;13.55;7.43;;;;;;;;;;5085385;28;20691;-85
2021/04/01 12:12:39;;;;;;;10.63;6.90;;;;;;;;;;5091584;28;20048;-86
2021/04/01 12:15:07;;;;;;;11.63;6.80;;;;;;;;;;5088684;28;20036;-86
2021/04/01 12:17:38;;;;;;;10.23;7.13;;;;;;;;;;5083303;28;20036;-86
2021/04/01 12:20:08;;;;;;;14.57;7.50;;;;;;;;;;5087282;28;20040;-86
2021/04/01 12:22:37;;;;;;;12.07;5.55;;;;;;;;;;5089302;28;20097;-87
2021/04/01 12:25:08;;;;;;;8.95;6.47;;;;;;;;;;5085866;28;20097;-87
2021/04/01 12:27:34;;;;;;;12.05;7.20;;;;;;;;;;5087417;28;20052;-86
2021/04/01 12:30:01;;;;;;;12.05;6.25;;;;;;;;;;5083615;28;20048;-87
2021/04/01 12:32:35;;;;;;;11.98;6.80;;;;;;;;;;5089450;28;20052;-86
2021/04/01 12:35:19;;;;;;;15.73;8.43;;;;;;;;;;5082169;28;20045;-85
2021/04/01 12:37:56;;;;;;;12.43;7.43;;;;;;;;;;5086653;28;20062;-86
2021/04/01 12:40:24;;;;;;;12.77;7.93;;;;;;;;;;5084674;28;20131;-86
2021/04/01 12:42:51;;;;;;;11.88;7.32;;;;;;;;;;5089235;28;20782;-86
2021/04/01 12:45:21;;;;;;;12.77;7.32;;;;;;;;;;5082380;28;20049;-85
2021/04/01 12:47:48;;;;;;;18.13;9.98;;;;;;;;;;5086065;28;20097;-86
2021/04/01 12:50:15;;;;;;;12.50;6.55;;;;;;;;;;5090418;28;20480;-85
2021/04/01 12:52:51;;;;;;;9.27;5.63;;;;;;;;;;5080610;28;20086;-85
2021/04/01 12:55:42;;;;;;;9.88;5.63;;;;;;;;;;5047023;28;20045;-85
2021/04/01 12:58:11;;;;;;;9.52;5.40;;;;;;;;;;5089932;28;20047;-86
2021/04/01 13:00:44;;;;;;;11.05;6.00;;;;;;;;;;5063996;28;20072;-86
2021/04/01 13:03:12;;;;;;;7.93;5.30;;;;;;;;;;5091519;28;20044;-86
2021/04/01 13:05:41;;;;;;;11.57;4.97;;;;;;;;;;5088990;28;20040;-87
2021/04/01 13:08:24;;;;;;;10.60;5.15;;;;;;;;;;5088700;28;20415;-85
2021/04/01 13:11:01;;;;;;;9.35;4.38;;;;;;;;;;5056878;28;20501;-85
2021/04/01 13:13:27;;;;;;;7.90;4.53;;;;;;;;;;5088725;28;20048;-86
2021/04/01 13:15:54;;;;;;;10.25;4.20;;;;;;;;;;5072378;28;20040;-86
2021/04/01 13:18:21;;;;;;;7.50;4.25;;;;;;;;;;5071314;28;20048;-86
2021/04/01 13:20:47;;;;;;;9.02;4.35;;;;;;;;;;5068153;28;20400;-86
2021/04/01 13:23:29;;;;;;;9.77;5.35;;;;;;;;;;5084970;28;20048;-86
2021/04/01 13:25:55;;;;;;;9.95;5.47;;;;;;;;;;5067925;28;20052;-85
2021/04/01 13:28:22;;;;;;;9.10;4.88;;;;;;;;;;5072049;28;20113;-85
2021/04/01 13:30:55;;;;;;;8.77;3.72;;;;;;;;;;5085175;28;20044;-85
2021/04/01 13:33:37;;;;;;;8.32;3.97;;;;;;;;;;5072387;28;20055;-86
2021/04/01 13:36:11;;;;;;;7.07;3.53;;;;;;;;;;5088575;28;20098;-85
2021/04/01 13:38:39;;;;;;;6.30;3.20;;;;;;;;;;5088299;28;20052;-86
2021/04/01 13:41:20;;;;;;;6.63;3.80;;;;;;;;;;5087423;28;20303;-85
2021/04/01 13:43:50;;;;;;;5.78;3.90;;;;;;;;;;5083945;28;20500;-85
2021/04/01 13:46:17;;;;;;;16.92;4.13;;;;;;;;;;5068948;28;20094;-86
2021/04/01 13:48:45;;;;;;;9.18;3.92;;;;;;;;;;5062612;28;20048;-86
2021/04/01 13:51:13;;;;;;;7.43;4.30;;;;;;;;;;5085340;28;20060;-86
2021/04/01 13:53:51;;;;;;;7.40;3.83;;;;;;;;;;5079435;28;20499;-86
2021/04/01 13:56:25;;;;;;;7.35;3.83;;;;;;;;;;5076413;28;20056;-86
2021/04/01 14:10:07;;;;;;;54.55;7.20;;;;;;;;;;5085045;28;20193;-86
2021/04/01 14:12:34;;;;;;;17.40;4.70;;;;;;;;;;5082999;28;20127;-86
2021/04/01 14:15:04;;;;;;;13.00;4.10;;;;;;;;;;5087371;28;20131;-86
2021/04/01 14:17:31;;;;;;;23.52;5.32;;;;;;;;;;5088966;28;20123;-86
2021/04/01 14:19:59;;;;;;;9.68;4.35;;;;;;;;;;5068207;28;20048;-86
2021/04/01 14:22:32;;;;;;;6.80;3.92;;;;;;;;;;5081430;28;20053;-87
2021/04/01 14:25:05;;;;;;;8.23;3.97;;;;;;;;;;5080791;28;20044;-87
2021/04/01 14:27:34;;;;;;;9.05;3.47;;;;;;;;;;5085429;28;20135;-87
2021/04/01 14:30:00;;;;;;;7.32;3.70;;;;;;;;;;5071398;28;20053;-86
2021/04/01 14:32:28;;;;;;;9.50;3.90;;;;;;;;;;5046166;28;20159;-86
2021/04/01 14:34:56;;;;;;;7.00;3.60;;;;;;;;;;5088233;28;20040;-86
2021/04/01 14:37:27;;;;;;;8.95;4.10;;;;;;;;;;5084137;28;20051;-86
2021/04/01 14:39:54;;;;;;;8.85;4.22;;;;;;;;;;5086080;28;20045;-86
2021/04/01 14:42:27;;;;;;;9.95;3.65;;;;;;;;;;5085073;28;20079;-87
2021/04/01 14:44:54;;;;;;;7.70;3.83;;;;;;;;;;5088134;28;20043;-86
2021/04/01 14:47:21;;;;;;;10.43;4.05;;;;;;;;;;5070182;28;20452;-86
2021/04/01 14:49:47;;;;;;;7.97;4.30;;;;;;;;;;5091074;28;20056;-86
2021/04/01 14:52:18;;;;;;;7.22;3.70;;;;;;;;;;5051743;28;20504;-86
2021/04/01 14:54:49;;;;;;;7.40;3.55;;;;;;;;;;5067468;28;20070;-85
2021/04/01 14:57:17;;;;;;;7.82;3.60;;;;;;;;;;5085618;28;20078;-85
2021/04/01 14:59:46;;;;;;;6.15;3.33;;;;;;;;;;5073753;28;20492;-85
2021/04/01 15:02:14;;;;;;;5.68;3.15;;;;;;;;;;5082691;28;20088;-85
2021/04/01 15:04:40;;;;;;;5.82;2.92;;;;;;;;;;5081098;28;20533;-86
2021/04/01 15:07:07;;;;;;;7.75;3.25;;;;;;;;;;5086118;28;20135;-85
2021/04/01 15:09:34;;;;;;;8.63;2.92;;;;;;;;;;5081828;28;20036;-85
2021/04/01 15:12:01;;;;;;;5.30;2.75;;;;;;;;;;5088103;28;20078;-86
2021/04/01 15:14:27;;;;;;;5.43;2.80;;;;;;;;;;5067710;28;20079;-85
2021/04/01 15:16:55;;;;;;;4.88;2.83;;;;;;;;;;5082894;28;20036;-86
2021/04/01 15:19:22;;;;;;;11.70;2.90;;;;;;;;;;5082721;28;20513;-86
2021/04/01 15:21:48;;;;;;;8.10;2.95;;;;;;;;;;5084661;28;20043;-85
2021/04/01 15:24:14;;;;;;;5.68;2.80;;;;;;;;;;5081708;28;20045;-86
2021/04/01 15:26:41;;;;;;;5.93;2.50;;;;;;;;;;5079592;28;20139;-86
2021/04/01 15:29:08;;;;;;;5.20;2.50;;;;;;;;;;5085796;28;20040;-86
2021/04/01 15:31:34;;;;;;;6.32;2.65;;;;;;;;;;5080392;28;20066;-86
2021/04/01 15:34:00;;;;;;;5.22;2.60;;;;;;;;;;5079990;28;20131;-86
2021/04/01 15:36:26;;;;;;;6.07;2.88;;;;;;;;;;5084323;28;20059;-85
2021/04/01 15:38:54;;;;;;;5.72;1.88;;;;;;;;;;5091478;28;20037;-86
2021/04/01 15:41:24;;;;;;;6.43;2.30;;;;;;;;;;5085080;28;20045;-85
2021/04/01 15:43:52;;;;;;;4.78;2.55;;;;;;;;;;5089185;28;20058;-85
2021/04/01 15:46:19;;;;;;;4.63;2.33;;;;;;;;;;5088610;28;20093;-85
2021/04/01 15:48:45;;;;;;;8.13;3.00;;;;;;;;;;5092947;28;20043;-86
2021/04/01 15:51:11;;;;;;;7.70;2.88;;;;;;;;;;5090022;28;20047;-86
2021/04/01 15:53:37;;;;;;;6.22;3.20;;;;;;;;;;5088662;28;20097;-87